Hewittville, New York
Current Conditions -  °F | °C
As of 6:53 AM on Wednesday 28 Jan 2015 (Local Time) from KMSS Reporting Station
Clear Clear  
Wind Chill: -22°   Ceiling: Unl
Heat Index: -16°   Visibility: 10mi
Dew Point: -21°   Wind: 6mph
Humidity: 66%   Direction: 260°W
Pressure: 30.16"   Gusts: NA
Location:  44.7612°N, 74.9585°W
Report Text: KMSS 281153Z AUTO 26005KT 10SM CLR M16/M21 A3016 RMK AO2 SLP223 T11611211 11128 21161 53025
Loading
Personal Weather Stations






























Interactive Weather Map New forecast layout! Learn more

10-Day Weather Forecast

Advertisements
Track Severe Weather on mobile